Time;durP1;ratioP1;P1;durP2;ratioP2;P2;SDS_P1;SDS_P2;PMS_P1;PMS_P2;Temp;Humidity;BMP_temperature;BMP_pressure;BME280_temperature;BME280_humidity;BME280_pressure;Samples;Min_cycle;Max_cycle;Signal;HPM_P1;HPM_P2
2021/08/17 00:00:43;;;;;;;13.25;3.38;;;13.70;99.90;;;;;;2630268;54;20218;-78
2021/08/17 00:03:14;;;;;;;9.85;3.45;;;13.80;99.90;;;;;;2629604;47;20184;-77
2021/08/17 00:05:44;;;;;;;4.95;2.38;;;13.80;99.90;;;;;;2631293;54;20141;-77
2021/08/17 00:08:13;;;;;;;10.45;3.47;;;13.80;99.90;;;;;;2630517;54;20133;-78
2021/08/17 00:10:42;;;;;;;7.38;3.25;;;13.80;99.90;;;;;;2631551;46;20156;-78
2021/08/17 00:13:11;;;;;;;4.38;2.45;;;13.70;99.90;;;;;;2630974;47;20188;-78
2021/08/17 00:15:39;;;;;;;3.03;2.42;;;13.80;99.90;;;;;;2630694;47;20153;-76
2021/08/17 00:18:08;;;;;;;9.38;2.90;;;13.80;99.90;;;;;;2631162;54;20242;-77
2021/08/17 00:20:40;;;;;;;10.63;3.10;;;13.70;99.90;;;;;;2631120;46;20133;-78
2021/08/17 00:23:10;;;;;;;7.03;3.50;;;13.70;99.90;;;;;;2631321;54;20181;-77
2021/08/17 00:25:42;;;;;;;7.13;2.53;;;13.70;99.90;;;;;;2631158;47;20136;-79
2021/08/17 00:28:12;;;;;;;6.10;2.78;;;13.70;99.90;;;;;;2630799;47;20149;-76
2021/08/17 00:30:41;;;;;;;5.00;3.30;;;13.60;99.90;;;;;;2628184;47;20160;-76
2021/08/17 00:33:10;;;;;;;8.73;3.63;;;13.70;99.90;;;;;;2630631;54;20161;-79
2021/08/17 00:35:41;;;;;;;9.25;4.05;;;13.60;99.90;;;;;;2630744;54;20160;-78
2021/08/17 00:38:10;;;;;;;7.05;2.85;;;13.50;99.90;;;;;;2631343;54;20153;-77
2021/08/17 00:40:39;;;;;;;8.98;3.80;;;13.40;99.90;;;;;;2631240;54;20202;-77
2021/08/17 00:43:10;;;;;;;6.50;3.15;;;13.50;99.90;;;;;;2631176;47;20208;-77
2021/08/17 00:45:39;;;;;;;5.63;3.17;;;13.60;99.90;;;;;;2631000;54;20152;-77
2021/08/17 00:48:09;;;;;;;7.18;3.20;;;13.60;99.90;;;;;;2631195;54;20205;-78
2021/08/17 00:50:41;;;;;;;4.18;3.17;;;13.50;99.90;;;;;;2630470;47;20152;-77
2021/08/17 00:53:09;;;;;;;6.70;3.28;;;13.50;99.90;;;;;;2631172;54;20149;-78
2021/08/17 00:55:38;;;;;;;5.35;2.80;;;13.50;99.90;;;;;;2631043;47;20142;-78
2021/08/17 00:58:07;;;;;;;7.40;3.63;;;13.50;99.90;;;;;;2631064;54;20163;-77
2021/08/17 01:00:36;;;;;;;11.73;4.20;;;13.60;99.90;;;;;;2636707;39;20809;-79
2021/08/17 01:03:05;;;;;;;10.82;3.78;;;13.60;99.90;;;;;;2631267;47;20927;-79
2021/08/17 01:05:34;;;;;;;7.28;3.40;;;13.60;99.90;;;;;;2630993;54;20141;-77
2021/08/17 01:08:08;;;;;;;15.05;4.47;;;13.60;99.90;;;;;;2630849;54;20145;-78
2021/08/17 01:10:37;;;;;;;13.25;4.60;;;13.70;99.90;;;;;;2631053;54;20129;-79
2021/08/17 01:13:08;;;;;;;11.77;5.00;;;13.90;99.90;;;;;;2631132;54;20161;-79
2021/08/17 01:15:37;;;;;;;10.65;4.28;;;14.00;99.90;;;;;;2631117;54;20133;-76
2021/08/17 01:18:07;;;;;;;8.73;4.90;;;14.00;99.90;;;;;;2631332;46;20156;-78
2021/08/17 01:20:38;;;;;;;11.82;4.40;;;14.00;99.90;;;;;;2631169;54;20130;-77
2021/08/17 01:23:10;;;;;;;11.68;5.00;;;14.10;99.90;;;;;;2630738;54;20161;-77
2021/08/17 01:25:44;;;;;;;7.72;4.00;;;14.10;99.90;;;;;;2631021;54;20196;-80
2021/08/17 01:28:13;;;;;;;7.95;3.92;;;14.10;99.90;;;;;;2631214;47;20151;-79
2021/08/17 01:30:42;;;;;;;10.55;4.50;;;14.10;99.90;;;;;;2630988;47;20201;-80
2021/08/17 01:33:11;;;;;;;11.45;5.50;;;14.10;99.90;;;;;;2631121;54;20161;-79
2021/08/17 01:35:39;;;;;;;16.63;5.22;;;14.10;99.90;;;;;;2630742;54;20217;-79
2021/08/17 01:38:08;;;;;;;16.27;5.22;;;14.20;99.90;;;;;;2631045;54;20190;-78
2021/08/17 01:40:37;;;;;;;16.15;5.07;;;14.30;99.90;;;;;;2631180;54;20145;-79
2021/08/17 01:43:09;;;;;;;12.82;5.28;;;14.30;99.90;;;;;;2631094;54;20149;-79
2021/08/17 01:45:38;;;;;;;15.68;5.07;;;14.40;99.90;;;;;;2631030;47;20193;-77
2021/08/17 01:48:07;;;;;;;16.30;5.53;;;14.30;99.90;;;;;;2631100;54;20143;-78
2021/08/17 01:50:36;;;;;;;12.95;5.13;;;14.40;99.90;;;;;;2631055;54;20157;-78
2021/08/17 01:53:08;;;;;;;14.40;4.47;;;14.60;99.90;;;;;;2631047;54;20205;-79
2021/08/17 01:55:37;;;;;;;15.80;4.70;;;14.50;99.90;;;;;;2641623;31;20918;-79
2021/08/17 01:58:11;;;;;;;16.02;6.43;;;14.40;99.90;;;;;;2632474;46;20149;-78
2021/08/17 02:00:40;;;;;;;14.32;5.95;;;14.30;99.90;;;;;;2631102;54;20134;-79
2021/08/17 02:03:09;;;;;;;10.25;5.03;;;14.30;99.90;;;;;;2631131;54;20268;-79
2021/08/17 02:05:43;;;;;;;18.45;4.63;;;14.30;99.90;;;;;;2630569;54;20137;-77
2021/08/17 02:08:12;;;;;;;14.32;6.30;;;14.40;99.90;;;;;;2630938;54;20149;-78
2021/08/17 02:10:43;;;;;;;13.02;4.68;;;14.30;99.90;;;;;;2631075;47;20168;-79
2021/08/17 02:13:16;;;;;;;19.70;5.90;;;14.30;99.90;;;;;;2630759;46;20204;-77
2021/08/17 02:15:45;;;;;;;12.88;6.28;;;14.40;99.90;;;;;;2630744;54;20199;-78
2021/08/17 02:18:15;;;;;;;15.90;5.18;;;14.50;99.90;;;;;;2631041;54;20146;-79
2021/08/17 02:20:44;;;;;;;16.30;4.97;;;14.40;99.90;;;;;;2633274;39;20744;-79
2021/08/17 02:23:16;;;;;;;15.70;5.57;;;14.40;99.90;;;;;;2645334;31;20899;-78
2021/08/17 02:25:47;;;;;;;14.30;4.68;;;14.50;99.90;;;;;;2630774;54;20153;-78
2021/08/17 02:28:28;;;;;;;14.02;5.25;;;14.40;99.90;;;;;;2631074;54;20129;-79
2021/08/17 02:30:57;;;;;;;16.48;5.35;;;14.50;99.90;;;;;;2630467;54;20146;-78
2021/08/17 02:33:26;;;;;;;16.92;5.07;;;14.40;99.90;;;;;;2630909;54;20176;-77
2021/08/17 02:35:59;;;;;;;18.45;4.90;;;14.50;99.90;;;;;;2635365;39;20697;-78
2021/08/17 02:38:28;;;;;;;12.73;5.30;;;14.60;99.90;;;;;;2630714;47;20146;-79
2021/08/17 02:41:00;;;;;;;12.75;4.75;;;14.70;99.90;;;;;;2630490;54;20168;-79
2021/08/17 02:43:32;;;;;;;16.33;5.63;;;14.70;99.90;;;;;;2630956;54;20145;-78
2021/08/17 02:46:01;;;;;;;9.55;5.00;;;14.50;99.90;;;;;;2634851;39;20849;-77
2021/08/17 02:48:30;;;;;;;15.55;5.00;;;14.80;99.90;;;;;;2630925;54;20134;-78
2021/08/17 02:50:58;;;;;;;15.05;5.13;;;14.70;99.90;;;;;;2630935;54;20149;-78
2021/08/17 02:53:27;;;;;;;11.05;4.47;;;14.60;99.90;;;;;;2630855;54;20164;-77
2021/08/17 02:55:56;;;;;;;19.25;5.68;;;14.50;99.90;;;;;;2629821;54;20204;-79
2021/08/17 02:58:26;;;;;;;12.13;4.65;;;14.50;99.90;;;;;;2630867;54;20895;-80
2021/08/17 03:00:57;;;;;;;11.30;4.63;;;14.40;99.90;;;;;;2630948;47;20136;-81
2021/08/17 03:03:26;;;;;;;18.92;5.30;;;14.30;99.90;;;;;;2630868;47;20150;-80
2021/08/17 03:05:54;;;;;;;17.00;5.47;;;14.40;99.90;;;;;;2630617;54;20153;-79
2021/08/17 03:08:23;;;;;;;17.33;5.55;;;14.40;99.90;;;;;;2630863;54;20833;-79
2021/08/17 03:10:52;;;;;;;13.95;5.03;;;14.30;99.90;;;;;;2630897;54;20149;-80
2021/08/17 03:13:21;;;;;;;12.23;4.63;;;14.40;99.90;;;;;;2633447;39;20596;-77
2021/08/17 03:15:49;;;;;;;9.90;5.28;;;14.20;99.90;;;;;;2630661;54;20141;-80
2021/08/17 03:18:22;;;;;;;15.13;5.32;;;14.20;99.90;;;;;;2638479;39;20871;-77
2021/08/17 03:20:50;;;;;;;15.00;4.53;;;14.20;99.90;;;;;;2631108;47;20142;-81
2021/08/17 03:23:19;;;;;;;13.23;4.95;;;14.20;99.90;;;;;;2630849;54;20136;-78
2021/08/17 03:25:48;;;;;;;9.95;4.93;;;14.30;99.90;;;;;;2630599;54;20152;-80
2021/08/17 03:28:17;;;;;;;11.52;5.10;;;14.10;99.90;;;;;;2630808;47;20164;-81
2021/08/17 03:30:45;;;;;;;16.75;5.13;;;14.10;99.90;;;;;;2630733;54;20148;-81
2021/08/17 03:33:14;;;;;;;9.43;4.30;;;14.10;99.90;;;;;;2630799;54;20149;-81
2021/08/17 03:35:46;;;;;;;11.48;5.05;;;;;;;;;;2630929;47;20221;-77
2021/08/17 03:38:15;;;;;;;13.05;6.05;;;14.20;99.90;;;;;;2630248;54;20204;-75
2021/08/17 03:40:44;;;;;;;11.23;4.93;;;14.10;99.90;;;;;;2628782;54;20710;-76
2021/08/17 03:43:13;;;;;;;9.70;4.32;;;14.00;99.90;;;;;;2630903;54;20130;-82
2021/08/17 03:45:42;;;;;;;14.70;5.43;;;14.10;99.90;;;;;;2628565;54;20157;-78
2021/08/17 03:48:11;;;;;;;19.63;4.93;;;14.20;99.90;;;;;;2628862;54;20160;-80
2021/08/17 03:50:40;;;;;;;8.80;3.95;;;;;;;;;;2631141;46;20165;-78
2021/08/17 03:53:12;;;;;;;21.27;5.80;;;14.10;99.90;;;;;;2628213;46;20141;-75
2021/08/17 03:55:41;;;;;;;13.77;4.32;;;14.10;99.90;;;;;;2627669;47;20184;-75
2021/08/17 03:58:09;;;;;;;7.55;4.50;;;14.20;99.90;;;;;;2627059;54;20149;-76
2021/08/17 04:00:38;;;;;;;10.98;4.53;;;14.20;99.90;;;;;;2628767;54;20144;-78
2021/08/17 04:03:07;;;;;;;12.13;4.10;;;14.20;99.90;;;;;;2628641;47;20168;-76
2021/08/17 04:05:36;;;;;;;11.75;4.28;;;14.10;99.90;;;;;;2629043;47;20179;-76
2021/08/17 04:08:07;;;;;;;10.80;4.55;;;14.10;99.90;;;;;;2628007;54;20137;-75
2021/08/17 04:10:39;;;;;;;14.60;4.20;;;14.10;99.90;;;;;;2627528;46;20184;-77
2021/08/17 04:13:08;;;;;;;12.82;4.05;;;14.10;99.90;;;;;;2627524;54;20169;-75
2021/08/17 04:15:37;;;;;;;13.63;4.68;;;14.10;99.90;;;;;;2630624;39;20591;-74
2021/08/17 04:18:06;;;;;;;17.48;4.05;;;14.10;99.90;;;;;;2627255;39;20583;-77
2021/08/17 04:20:36;;;;;;;14.77;4.60;;;14.20;99.90;;;;;;2629103;39;20516;-76
2021/08/17 04:23:05;;;;;;;15.27;5.35;;;14.10;99.90;;;;;;2627246;39;20586;-79
2021/08/17 04:25:33;;;;;;;14.27;5.03;;;14.10;99.90;;;;;;2627201;54;20161;-75
2021/08/17 04:28:05;;;;;;;8.50;3.97;;;14.20;99.90;;;;;;2627257;47;20154;-76
2021/08/17 04:30:34;;;;;;;10.15;4.85;;;14.10;99.90;;;;;;2629046;54;20150;-76
2021/08/17 04:33:03;;;;;;;11.30;4.43;;;14.10;99.90;;;;;;2628084;54;20818;-76
2021/08/17 04:35:31;;;;;;;13.75;4.32;;;14.10;99.90;;;;;;2628876;47;20165;-79
2021/08/17 04:38:00;;;;;;;16.63;4.80;;;14.10;99.90;;;;;;2630990;46;20208;-77
2021/08/17 04:40:29;;;;;;;9.77;4.95;;;14.20;99.90;;;;;;2630464;54;20157;-75
2021/08/17 04:42:58;;;;;;;7.30;4.45;;;14.10;99.90;;;;;;2628604;54;20156;-75
2021/08/17 04:45:30;;;;;;;8.48;4.15;;;14.00;99.90;;;;;;2627498;46;20173;-77
2021/08/17 04:47:58;;;;;;;10.40;4.28;;;14.00;99.90;;;;;;2627732;54;20157;-76
2021/08/17 04:50:27;;;;;;;11.43;4.03;;;14.00;99.90;;;;;;2627377;54;20145;-75
2021/08/17 04:52:56;;;;;;;16.77;4.57;;;14.00;99.90;;;;;;2630632;54;20148;-75
2021/08/17 04:55:24;;;;;;;15.98;4.35;;;14.10;99.90;;;;;;2627511;47;20180;-78
2021/08/17 04:57:55;;;;;;;10.57;3.60;;;14.10;99.90;;;;;;2629415;54;20793;-76
2021/08/17 05:00:25;;;;;;;15.82;4.32;;;14.00;99.90;;;;;;2630128;54;20164;-77
2021/08/17 05:02:57;;;;;;;8.10;3.60;;;14.10;99.90;;;;;;2630660;54;20157;-77
2021/08/17 05:05:26;;;;;;;7.88;3.45;;;14.10;99.90;;;;;;2630603;46;20141;-76
2021/08/17 05:07:55;;;;;;;7.95;3.65;;;14.00;99.90;;;;;;2629818;54;20133;-77
2021/08/17 05:10:25;;;;;;;12.70;4.70;;;14.10;99.90;;;;;;2630141;54;20151;-76
2021/08/17 05:12:54;;;;;;;11.48;4.03;;;14.10;99.90;;;;;;2632367;39;20744;-79
2021/08/17 05:15:22;;;;;;;16.27;5.82;;;14.10;99.90;;;;;;2630968;46;20153;-78
2021/08/17 05:17:51;;;;;;;10.10;3.92;;;14.10;99.90;;;;;;2631081;47;20137;-79
2021/08/17 05:20:22;;;;;;;11.90;4.22;;;14.10;99.90;;;;;;2631243;46;20153;-79
2021/08/17 05:22:51;;;;;;;10.60;3.70;;;14.20;99.90;;;;;;2631529;46;20169;-81
2021/08/17 05:25:21;;;;;;;15.20;4.63;;;;;;;;;;2631097;46;20139;-78
2021/08/17 05:27:50;;;;;;;11.38;4.35;;;14.30;99.90;;;;;;2631230;54;20133;-80
2021/08/17 05:30:20;;;;;;;12.85;4.85;;;14.20;99.90;;;;;;2631446;46;20157;-78
2021/08/17 05:32:48;;;;;;;9.65;3.90;;;14.30;99.90;;;;;;2630575;46;20130;-83
2021/08/17 05:35:17;;;;;;;13.32;4.18;;;14.40;99.90;;;;;;2631067;47;20165;-80
2021/08/17 05:37:49;;;;;;;13.40;3.83;;;14.50;99.90;;;;;;2630988;47;20130;-79
2021/08/17 05:40:18;;;;;;;7.63;3.50;;;14.60;99.90;;;;;;2631558;46;20146;-81
2021/08/17 05:42:48;;;;;;;8.88;3.58;;;14.30;99.90;;;;;;2631080;54;20141;-80
2021/08/17 05:45:16;;;;;;;8.80;3.08;;;14.50;99.90;;;;;;2630812;54;20141;-79
2021/08/17 05:47:47;;;;;;;8.65;3.45;;;14.40;99.90;;;;;;2631119;46;20134;-80
2021/08/17 05:50:18;;;;;;;11.77;3.70;;;14.30;99.90;;;;;;2631051;47;20150;-81
2021/08/17 05:52:49;;;;;;;7.82;3.38;;;14.40;99.90;;;;;;2631250;46;20161;-78
2021/08/17 05:55:18;;;;;;;9.13;3.38;;;14.30;99.90;;;;;;2639811;39;20701;-79
2021/08/17 05:57:56;;;;;;;12.63;3.67;;;14.30;99.90;;;;;;2630825;46;20153;-80
2021/08/17 06:00:25;;;;;;;6.38;3.00;;;14.40;99.90;;;;;;2631313;46;20161;-79
2021/08/17 06:02:54;;;;;;;14.15;4.13;;;;;;;;;;2631215;46;20185;-75
2021/08/17 06:05:24;;;;;;;13.57;2.90;;;14.30;99.90;;;;;;2630712;47;20164;-79
2021/08/17 06:07:56;;;;;;;12.27;3.05;;;14.40;99.90;;;;;;2630955;54;21008;-77
2021/08/17 06:10:24;;;;;;;9.93;4.25;;;14.60;99.90;;;;;;2631039;47;20148;-80
2021/08/17 06:12:53;;;;;;;14.02;3.85;;;14.60;99.90;;;;;;2630743;47;20837;-78
2021/08/17 06:15:22;;;;;;;16.17;3.10;;;14.50;99.90;;;;;;2630291;47;20149;-78
2021/08/17 06:17:51;;;;;;;13.52;3.03;;;14.50;99.90;;;;;;2630732;47;20152;-79
2021/08/17 06:20:20;;;;;;;17.75;3.97;;;14.50;99.90;;;;;;2631061;46;20149;-77
2021/08/17 06:22:49;;;;;;;15.02;3.80;;;14.60;99.90;;;;;;2630795;46;20156;-79
2021/08/17 06:25:20;;;;;;;8.13;3.08;;;14.60;99.90;;;;;;2629749;54;20231;-78
2021/08/17 06:27:49;;;;;;;4.40;2.70;;;;;;;;;;2630763;47;20901;-76
2021/08/17 06:30:18;;;;;;;10.95;3.00;;;14.60;99.90;;;;;;2630917;47;20137;-79
2021/08/17 06:32:47;;;;;;;7.78;2.67;;;14.50;99.90;;;;;;2631278;46;20157;-80
2021/08/17 06:35:15;;;;;;;8.57;2.33;;;14.60;99.90;;;;;;2631084;46;20157;-76
2021/08/17 06:37:44;;;;;;;9.10;3.20;;;14.70;99.90;;;;;;2631214;46;20142;-80
2021/08/17 06:40:14;;;;;;;6.85;3.03;;;14.80;99.90;;;;;;2630546;46;20141;-78
2021/08/17 06:42:46;;;;;;;4.55;2.38;;;14.80;99.90;;;;;;2628301;47;20149;-78
2021/08/17 06:45:15;;;;;;;7.38;3.13;;;14.80;99.90;;;;;;2629547;54;20159;-78
2021/08/17 06:47:48;;;;;;;6.93;2.60;;;14.80;99.90;;;;;;2629575;39;20580;-81
2021/08/17 06:50:17;;;;;;;11.40;3.38;;;14.80;99.90;;;;;;2629937;46;20567;-82
2021/08/17 06:52:46;;;;;;;7.80;3.05;;;14.90;99.90;;;;;;2630306;46;20145;-80
2021/08/17 06:55:15;;;;;;;5.40;2.75;;;15.10;99.90;;;;;;2634367;39;20596;-78
2021/08/17 06:57:46;;;;;;;9.77;3.17;;;15.10;99.90;;;;;;2629412;47;20133;-77
2021/08/17 07:00:16;;;;;;;10.70;3.50;;;15.20;99.90;;;;;;2630015;47;20153;-81
2021/08/17 07:02:44;;;;;;;7.78;2.88;;;15.30;99.90;;;;;;2629647;47;20138;-81
2021/08/17 07:05:13;;;;;;;8.35;2.55;;;15.30;99.90;;;;;;2637623;39;20723;-81
2021/08/17 07:07:42;;;;;;;8.52;3.13;;;15.40;99.90;;;;;;2629404;54;20167;-77
2021/08/17 07:10:13;;;;;;;8.15;3.20;;;15.40;99.90;;;;;;2629970;47;20201;-77
2021/08/17 07:12:42;;;;;;;4.95;2.38;;;15.40;99.90;;;;;;2629931;47;20153;-79
2021/08/17 07:15:14;;;;;;;11.75;3.58;;;15.60;99.90;;;;;;2629908;54;20137;-82
2021/08/17 07:17:42;;;;;;;7.43;2.95;;;15.60;99.90;;;;;;2629688;54;20149;-79
2021/08/17 07:20:12;;;;;;;7.00;2.60;;;15.60;99.90;;;;;;2629976;54;20137;-78
2021/08/17 07:22:41;;;;;;;15.30;3.60;;;15.70;99.90;;;;;;2628388;47;20161;-77
2021/08/17 07:25:10;;;;;;;9.82;3.47;;;15.70;99.90;;;;;;2623142;39;20738;-43
2021/08/17 07:27:40;;;;;;;6.88;2.72;;;15.70;99.90;;;;;;2616318;54;20172;-43
2021/08/17 07:30:13;;;;;;;9.13;2.35;;;15.80;99.90;;;;;;2616393;54;20148;-44
2021/08/17 07:32:43;;;;;;;6.00;2.50;;;16.10;99.90;;;;;;2616424;54;20138;-43
2021/08/17 07:35:13;;;;;;;14.15;2.72;;;16.00;99.90;;;;;;2616307;54;20142;-42
2021/08/17 07:37:44;;;;;;;7.50;2.63;;;15.90;99.90;;;;;;2614632;39;20589;-42
2021/08/17 07:40:14;;;;;;;8.23;2.90;;;15.80;99.90;;;;;;2615916;54;20212;-44
2021/08/17 07:42:45;;;;;;;12.18;3.40;;;16.00;99.90;;;;;;2615194;54;20153;-42
2021/08/17 07:45:17;;;;;;;4.53;2.20;;;;;;;;;;2617979;54;20149;-41
2021/08/17 07:47:47;;;;;;;13.35;2.53;;;16.00;99.90;;;;;;2617636;54;20144;-41
2021/08/17 07:50:16;;;;;;;5.78;2.55;;;16.20;99.90;;;;;;2617999;39;20603;-44
2021/08/17 07:52:45;;;;;;;10.10;3.33;;;16.20;99.90;;;;;;2617917;39;20562;-41
2021/08/17 07:55:17;;;;;;;12.55;3.38;;;16.30;99.90;;;;;;2616513;54;20153;-44
2021/08/17 07:57:46;;;;;;;16.30;4.88;;;16.40;99.90;;;;;;2616604;54;20155;-42
2021/08/17 08:00:18;;;;;;;7.80;3.33;;;16.30;99.90;;;;;;2615622;47;20200;-43
2021/08/17 08:02:47;;;;;;;12.85;3.05;;;16.50;99.90;;;;;;2616136;54;20146;-41
2021/08/17 08:05:16;;;;;;;14.02;2.90;;;16.50;99.90;;;;;;2616115;46;20153;-42
2021/08/17 08:07:44;;;;;;;8.52;3.30;;;16.50;99.90;;;;;;2616195;54;20679;-42
2021/08/17 08:10:13;;;;;;;9.27;3.22;;;16.80;99.90;;;;;;2616220;54;20191;-44
2021/08/17 08:12:42;;;;;;;7.88;3.33;;;16.80;99.90;;;;;;2615762;54;20153;-42
2021/08/17 08:15:13;;;;;;;12.57;4.13;;;17.10;99.90;;;;;;2615631;54;20149;-42
2021/08/17 08:17:44;;;;;;;8.50;2.92;;;17.10;99.90;;;;;;2616067;54;20149;-42
2021/08/17 08:20:15;;;;;;;8.00;4.03;;;17.00;99.90;;;;;;2615777;54;20250;-41
2021/08/17 08:22:44;;;;;;;10.05;3.00;;;16.80;99.90;;;;;;2616264;54;20249;-42
2021/08/17 08:25:13;;;;;;;12.43;3.22;;;16.90;99.90;;;;;;2616169;54;20161;-42
2021/08/17 08:27:42;;;;;;;15.00;3.95;;;16.90;99.90;;;;;;2616841;54;20137;-42
2021/08/17 08:30:12;;;;;;;8.02;3.60;;;17.10;99.90;;;;;;2616591;54;20188;-43
2021/08/17 08:32:44;;;;;;;14.68;3.75;;;;;;;;;;2616493;54;20156;-43
2021/08/17 08:35:14;;;;;;;11.85;3.17;;;17.30;99.90;;;;;;2617032;39;20440;-43
2021/08/17 08:37:44;;;;;;;10.88;3.88;;;17.40;99.90;;;;;;2616214;39;20431;-44
2021/08/17 08:40:14;;;;;;;10.13;3.67;;;17.50;99.90;;;;;;2616657;54;20184;-41
2021/08/17 08:42:43;;;;;;;12.48;3.85;;;17.00;99.90;;;;;;2616726;54;20144;-41
2021/08/17 08:45:12;;;;;;;10.23;2.92;;;16.80;99.90;;;;;;2616708;54;20146;-41
2021/08/17 08:47:44;;;;;;;10.82;3.75;;;16.90;99.90;;;;;;2616379;54;20161;-42
2021/08/17 08:50:13;;;;;;;9.93;3.38;;;17.10;99.90;;;;;;2616940;54;20196;-41
2021/08/17 08:52:42;;;;;;;9.38;3.83;;;17.00;99.90;;;;;;2617372;39;20539;-41
2021/08/17 08:55:12;;;;;;;7.68;3.85;;;;;;;;;;2616723;54;20134;-42
2021/08/17 08:57:41;;;;;;;10.45;4.03;;;17.00;99.90;;;;;;2616940;54;20168;-42
2021/08/17 09:00:12;;;;;;;8.82;3.75;;;17.10;99.90;;;;;;2617260;39;20641;-42
2021/08/17 09:02:46;;;;;;;14.45;4.45;;;16.90;99.90;;;;;;2616765;54;20150;-41
2021/08/17 09:05:16;;;;;;;10.95;3.92;;;17.00;99.90;;;;;;2616578;54;20196;-43
2021/08/17 09:07:47;;;;;;;7.82;3.72;;;17.00;99.90;;;;;;2616763;54;20662;-42
2021/08/17 09:10:17;;;;;;;10.43;4.50;;;17.20;99.90;;;;;;2617034;47;20180;-42
2021/08/17 09:12:49;;;;;;;12.25;3.42;;;17.30;99.90;;;;;;2616668;54;20683;-43
2021/08/17 09:15:19;;;;;;;13.88;4.45;;;17.30;99.90;;;;;;2616924;54;20172;-42
2021/08/17 09:18:03;;;;;;;8.93;3.15;;;17.30;99.90;;;;;;2617040;54;20146;-42
2021/08/17 09:20:36;;;;;;;10.18;4.85;;;17.40;99.90;;;;;;2616897;54;20764;-43
2021/08/17 09:23:28;;;;;;;14.07;4.55;;;17.40;99.90;;;;;;2616787;54;20165;-42
2021/08/17 09:25:59;;;;;;;12.48;5.22;;;17.20;99.90;;;;;;2616616;47;20145;-43
2021/08/17 09:28:33;;;;;;;12.05;4.60;;;17.00;99.90;;;;;;2616603;54;20173;-42
2021/08/17 09:31:04;;;;;;;12.25;5.15;;;17.10;99.90;;;;;;2616536;47;20144;-42
2021/08/17 09:33:40;;;;;;;6.15;4.22;;;17.20;99.90;;;;;;2617012;39;20584;-42
2021/08/17 09:36:10;;;;;;;12.00;5.40;;;17.50;99.90;;;;;;2616687;39;20546;-42
2021/08/17 09:38:39;;;;;;;8.80;4.28;;;17.50;99.90;;;;;;2616625;54;20169;-42
2021/08/17 09:41:21;;;;;;;10.98;5.03;;;17.70;99.90;;;;;;2616624;54;20693;-40
2021/08/17 09:43:58;;;;;;;4.60;4.00;;;17.70;99.90;;;;;;2616678;54;20631;-42
2021/08/17 09:46:32;;;;;;;9.77;4.72;;;17.70;99.90;;;;;;2616648;54;20588;-41
2021/08/17 09:49:20;;;;;;;6.38;3.75;;;17.50;99.90;;;;;;2616773;54;20157;-41
2021/08/17 09:51:50;;;;;;;10.65;5.05;;;17.50;99.90;;;;;;2616672;54;20148;-41
2021/08/17 09:54:20;;;;;;;8.50;4.15;;;17.50;99.90;;;;;;2616592;47;20149;-42
2021/08/17 09:56:57;;;;;;;14.25;5.10;;;17.50;99.90;;;;;;2616652;54;20207;-41
2021/08/17 09:59:27;;;;;;;8.60;4.15;;;17.50;99.90;;;;;;2616213;54;20184;-40
2021/08/17 10:01:56;;;;;;;13.98;5.32;;;17.60;99.90;;;;;;2616500;46;20161;-41
2021/08/17 10:04:29;;;;;;;10.10;5.28;;;17.50;99.90;;;;;;2616220;54;20153;-40
2021/08/17 10:10:27;;;;;;;9.32;3.92;;;17.30;99.90;;;;;;2616340;54;20706;-41
2021/08/17 10:12:56;;;;;;;10.13;4.60;;;17.40;99.90;;;;;;2616167;54;20148;-42
2021/08/17 10:15:25;;;;;;;7.43;4.82;;;17.40;99.90;;;;;;2616468;54;20141;-44
2021/08/17 10:17:54;;;;;;;6.57;4.95;;;17.60;99.90;;;;;;2616508;54;20871;-40
2021/08/17 10:20:26;;;;;;;8.35;4.97;;;17.80;99.90;;;;;;2616952;39;20605;-40
2021/08/17 10:22:56;;;;;;;9.32;5.05;;;18.00;99.90;;;;;;2616141;54;20153;-41
2021/08/17 10:25:26;;;;;;;11.45;5.95;;;17.70;99.90;;;;;;2616400;54;20145;-40
2021/08/17 10:27:54;;;;;;;7.65;4.78;;;18.50;99.90;;;;;;2616494;54;20149;-43
2021/08/17 10:30:25;;;;;;;6.80;5.38;;;18.50;99.90;;;;;;2616498;54;20180;-41
2021/08/17 10:32:57;;;;;;;8.48;5.30;;;18.60;99.90;;;;;;2616198;54;20176;-42
2021/08/17 10:35:59;;;;;;;11.27;5.85;;;18.60;99.90;;;;;;2615948;54;20138;-40
2021/08/17 10:38:52;;;;;;;10.55;5.28;;;18.30;99.90;;;;;;2616220;54;20172;-42
2021/08/17 10:41:31;;;;;;;5.88;4.70;;;18.10;99.90;;;;;;2616573;54;20161;-41
2021/08/17 10:44:16;;;;;;;8.45;5.18;;;18.40;99.90;;;;;;2616674;54;20145;-41
2021/08/17 10:47:06;;;;;;;8.63;4.90;;;18.70;99.90;;;;;;2616361;54;20164;-41
2021/08/17 10:49:46;;;;;;;11.90;5.70;;;18.60;99.90;;;;;;2616018;54;20356;-39
2021/08/17 10:52:34;;;;;;;13.45;7.00;;;18.60;99.90;;;;;;2616890;31;20704;-41
2021/08/17 10:55:28;;;;;;;12.98;5.78;;;18.50;99.90;;;;;;2615956;54;20146;-42
2021/08/17 10:57:59;;;;;;;10.30;6.63;;;18.50;99.90;;;;;;2616052;54;20149;-41
2021/08/17 11:01:00;;;;;;;8.63;6.00;;;18.50;99.90;;;;;;2616148;39;20620;-41
2021/08/17 11:03:47;;;;;;;12.38;6.93;;;18.50;99.90;;;;;;2616284;54;20140;-43
2021/08/17 11:06:34;;;;;;;9.13;6.95;;;;;;;;;;2616327;39;20558;-43
2021/08/17 11:09:06;;;;;;;10.88;7.25;;;18.70;99.90;;;;;;2616027;54;20184;-42
2021/08/17 11:11:36;;;;;;;10.52;7.75;;;18.80;99.90;;;;;;2616458;54;20679;-42
2021/08/17 11:14:10;;;;;;;12.13;6.70;;;18.80;99.90;;;;;;2617661;54;20145;-43
2021/08/17 11:16:47;;;;;;;8.50;5.68;;;18.60;99.90;;;;;;2618508;54;20144;-43
2021/08/17 11:19:18;;;;;;;6.85;6.00;;;18.50;99.90;;;;;;2616750;54;20710;-43
2021/08/17 11:21:48;;;;;;;10.20;6.97;;;18.50;99.90;;;;;;2616291;47;20156;-43
2021/08/17 11:24:25;;;;;;;10.65;7.38;;;18.60;99.90;;;;;;2616769;39;20582;-43
2021/08/17 11:26:57;;;;;;;13.05;8.05;;;18.90;99.90;;;;;;2616212;54;20148;-42
2021/08/17 11:29:35;;;;;;;8.38;7.10;;;19.00;99.90;;;;;;2616287;54;20169;-42
2021/08/17 11:32:06;;;;;;;12.35;8.23;;;19.10;99.90;;;;;;2616881;39;20548;-41
2021/08/17 11:34:37;;;;;;;9.15;7.35;;;19.10;99.90;;;;;;2615954;54;20659;-40
2021/08/17 11:37:08;;;;;;;7.35;5.85;;;;;;;;;;2615940;54;20138;-41
2021/08/17 11:39:42;;;;;;;9.98;7.95;;;18.80;99.90;;;;;;2616494;54;20172;-42
2021/08/17 11:42:13;;;;;;;15.68;7.43;;;18.70;99.90;;;;;;2616653;39;20580;-42
2021/08/17 11:44:42;;;;;;;9.35;7.22;;;18.60;99.90;;;;;;2616120;54;20655;-42
2021/08/17 11:47:13;;;;;;;10.02;7.95;;;18.80;99.90;;;;;;2616337;54;20141;-42
2021/08/17 11:49:43;;;;;;;16.58;9.23;;;18.80;99.90;;;;;;2616119;54;20165;-42
2021/08/17 11:52:15;;;;;;;12.50;8.35;;;19.00;99.90;;;;;;2616314;39;20558;-43
2021/08/17 11:54:50;;;;;;;9.43;7.53;;;19.30;99.90;;;;;;2616010;54;20665;-42
2021/08/17 11:57:29;;;;;;;9.88;8.07;;;19.50;99.90;;;;;;2616832;54;20148;-43
2021/08/17 11:59:59;;;;;;;10.60;7.97;;;;;;;;;;2616881;47;20173;-42
2021/08/17 12:02:29;;;;;;;12.20;8.77;;;19.50;99.90;;;;;;2616619;54;20164;-43
2021/08/17 12:05:00;;;;;;;14.23;9.15;;;19.30;99.90;;;;;;2616700;54;20161;-44
2021/08/17 12:07:30;;;;;;;11.40;8.88;;;;;;;;;;2616357;54;20149;-42
2021/08/17 12:10:08;;;;;;;12.13;8.88;;;19.10;99.90;;;;;;2616726;54;20172;-42
2021/08/17 12:13:03;;;;;;;14.15;8.95;;;19.30;99.90;;;;;;2616732;54;20145;-42
2021/08/17 12:15:38;;;;;;;12.05;9.77;;;19.40;99.90;;;;;;2616799;54;20675;-41
2021/08/17 12:18:10;;;;;;;10.77;8.85;;;19.50;99.90;;;;;;2616944;54;20148;-44
2021/08/17 12:20:41;;;;;;;12.90;10.25;;;19.20;99.90;;;;;;2616990;54;20156;-43
2021/08/17 12:23:18;;;;;;;13.75;9.90;;;19.00;99.90;;;;;;2616773;54;20153;-42
2021/08/17 12:25:49;;;;;;;11.05;9.07;;;18.90;99.90;;;;;;2616832;54;20133;-42
2021/08/17 12:28:29;;;;;;;14.02;9.80;;;19.00;99.90;;;;;;2616754;54;20145;-42
2021/08/17 12:31:13;;;;;;;14.32;10.05;;;18.90;99.90;;;;;;2617368;39;20564;-43
2021/08/17 12:33:54;;;;;;;16.13;8.98;;;18.80;99.90;;;;;;2616823;54;20265;-42
2021/08/17 12:36:24;;;;;;;12.98;10.20;;;18.80;99.90;;;;;;2617134;39;20500;-42
2021/08/17 12:38:53;;;;;;;15.90;9.70;;;18.80;99.90;;;;;;2616953;54;20188;-42
2021/08/17 12:41:39;;;;;;;12.07;9.63;;;18.80;99.90;;;;;;2620512;54;20242;-43
2021/08/17 12:44:17;;;;;;;18.75;11.18;;;18.60;99.90;;;;;;2620643;54;20168;-43
2021/08/17 12:47:04;;;;;;;17.17;11.40;;;18.30;99.90;;;;;;2621294;54;20161;-45
2021/08/17 12:49:41;;;;;;;18.80;12.07;;;18.00;99.90;;;;;;2620705;54;20303;-43
2021/08/17 12:52:27;;;;;;;12.95;9.77;;;17.90;99.90;;;;;;2620261;54;20155;-41
2021/08/17 12:54:58;;;;;;;18.73;12.95;;;17.80;99.90;;;;;;2619727;54;20161;-41
2021/08/17 12:57:31;;;;;;;15.95;11.90;;;17.60;99.90;;;;;;2620083;39;20546;-41
2021/08/17 13:00:00;;;;;;;15.02;12.43;;;17.50;99.90;;;;;;2618213;54;20694;-41
2021/08/17 13:02:29;;;;;;;14.57;12.50;;;17.60;99.90;;;;;;2615895;54;20161;-41
2021/08/17 13:04:58;;;;;;;16.33;12.30;;;17.70;99.90;;;;;;2616449;39;20570;-41
2021/08/17 13:07:27;;;;;;;16.80;13.13;;;17.80;99.90;;;;;;2616196;54;20149;-43